Announcements:Want to see something added? Can you write a mobile app? Email Mr. Reynolds

Nearby METAR Reports

 

KMIC - Crystal, Minnesota, USA
Distance from station: S 7mi, 16km
Updated: Fri, 10/22/2021 4:53pm CDT
Few Clouds
Few Clouds
 Wind from NNW
Wind: NNW 6 mph , 9 km/h
Temperature: 48°F , 9°C
Wind Chill: 45°F , 7°C
Dew Point: 28°F , -2°C
Humidity: 46%
Barometer: 30.04 inHg , 1017.3 hPa
Clouds: Few Clouds
Visibility: 10 miles , 16 km
Cloud details: Few Clouds 4400 ft
2021/10/22 21:53 KMIC 222153Z 34005KT 10SM FEW044 09/M02 A3004 RMK AO2 SLP180 T00941017
KANE - Anoka-Blaine, Minnesota, USA
Distance from station: SW 16mi, 27km
Updated: Fri, 10/22/2021 4:45pm CDT
Partly cloudy
Partly cloudy
 Wind from N
Wind: N 8 mph , 13 km/h
Temperature: 48°F , 9°C
Wind Chill: 44°F , 7°C
Dew Point: 30°F , -1°C
Humidity: 50%
Barometer: 30.04 inHg , 1017.3 hPa
Clouds: Partly cloudy
Visibility: 10 miles , 16 km
Cloud details: Partly cloudy 4300 ft
2021/10/22 21:45 KANE 222145Z 01007KT 10SM SCT043 09/M01 A3004
KFCM - Flying Cloud-Eden Prairie, Minnesota, USA
Distance from station: NE 17mi, 28km
Updated: Fri, 10/22/2021 4:53pm CDT
Clear
Clear
 Wind from N
Wind: N 5 mph , 7 km/h
Temperature: 48°F , 9°C
Wind Chill: 46°F , 8°C
Dew Point: 28°F , -2°C
Humidity: 46%
Barometer: 30.03 inHg , 1016.9 hPa
Clouds: Clear
Visibility: 10 miles , 16 km
2021/10/22 21:53 KFCM 222153Z 01004KT 10SM CLR 09/M02 A3003 RMK AO2 SLP177 T00941022
 
KMSP - Minneapolis-St. Paul, Minnesota, USA
Distance from station: NW 16mi, 27km
Updated: Fri, 10/22/2021 4:53pm CDT
Partly cloudy
Partly cloudy
 Wind from N
Wind: N 7 mph , 11 km/h
Temperature: 48°F , 9°C
Wind Chill: 45°F , 7°C
Dew Point: 27°F , -3°C
Humidity: 43%
Barometer: 30.05 inHg , 1017.6 hPa
Clouds: Partly cloudy
Visibility: 10 miles , 16 km
Cloud details: Partly cloudy 4000 ft
Partly cloudy 25000 ft
2021/10/22 21:53 KMSP 222153Z 35006KT 10SM SCT040 SCT250 09/M03 A3005 RMK AO2 SLP180 T00941033
KRST - Rochester, Minnesota, USA
Distance from station: NW 99mi, 159km
Updated: Fri, 10/22/2021 4:54pm CDT
Clear
Clear
 Wind from N
Wind: N 3 mph , 6 km/h
Temperature: 48°F , 9°C
Dew Point: 30°F , -1°C
Humidity: 50%
Barometer: 30.03 inHg , 1016.9 hPa
Clouds: Clear
Visibility: 10 miles , 16 km
2021/10/22 21:54 KRST 222154Z 01003KT 10SM CLR 09/M01 A3003 RMK AO2 SLP180 T00891011
KSGS - Fleming/St Paul, Minnesota, USA
Distance from station: W 23mi, 37km
Updated: Fri, 10/22/2021 5:35pm CDT
Clear
Clear
 Wind from N
Wind: N 7 mph , 11 km/h
Temperature: 48°F , 9°C
Wind Chill: 45°F , 7°C
Dew Point: 28°F , -2°C
Humidity: 46%
Barometer: 30.04 inHg , 1017.3 hPa
Clouds: Clear
Visibility: 10 miles , 16 km
2021/10/22 22:35 KSGS 222235Z AUTO 36006KT 10SM CLR 09/M02 A3004 RMK AO2 T00851016
 
KDLH - Duluth, Minnesota, USA
Distance from station: SSW 164mi, 265km
Updated: Fri, 10/22/2021 4:55pm CDT
Mostly cloudy
Mostly cloudy
 Wind from N
Wind: N 5 mph , 7 km/h
Temperature: 43°F , 6°C
Wind Chill: 40°F , 4°C
Dew Point: 28°F , -2°C
Humidity: 57%
Barometer: 30.04 inHg , 1017.3 hPa
Clouds: Mostly cloudy
Visibility: 10 miles , 16 km
Cloud details: Mostly cloudy 3300 ft
Mostly cloudy 10000 ft
2021/10/22 21:55 KDLH 222155Z 36004KT 10SM BKN033 BKN100 06/M02 A3004 RMK AO2 SLP191 T00561022
KBRD - Brainard, Minnesota, USA
Distance from station: SSE 127mi, 25km
Updated: Fri, 10/22/2021 4:53pm CDT
Clear
Clear
 Wind from NE
Wind: NE 7 mph , 11 km/h
Temperature: 45°F , 7°C
Wind Chill: 41°F , 5°C
Dew Point: 27°F , -3°C
Humidity: 49%
Barometer: 30.07 inHg , 1018.3 hPa
Clouds: Clear
Visibility: 10 miles , 16 km
2021/10/22 21:53 KBRD 222153Z AUTO 04006KT 10SM CLR 07/M03 A3007 RMK AO2 SLP198 T00671028 TSNO